createdAt,value
2023-05-01T00:00:37.879Z,5.57
2023-05-01T00:03:04.739Z,4.45
2023-05-01T00:05:31.784Z,6.30
2023-05-01T00:07:58.638Z,6.03
2023-05-01T00:10:25.613Z,6.05
2023-05-01T00:12:52.336Z,5.90
2023-05-01T00:15:19.066Z,5.75
2023-05-01T00:17:46.211Z,4.95
2023-05-01T00:20:13.796Z,6.50
2023-05-01T00:22:40.766Z,5.35
2023-05-01T00:25:08.129Z,6.60
2023-05-01T00:27:34.956Z,6.88
2023-05-01T00:30:01.778Z,7.25
2023-05-01T00:32:28.578Z,8.10
2023-05-01T00:34:57.697Z,5.25
2023-05-01T00:37:24.630Z,8.13
2023-05-01T00:39:51.472Z,6.43
2023-05-01T00:42:18.282Z,6.78
2023-05-01T00:44:44.969Z,7.18
2023-05-01T00:47:11.805Z,8.70
2023-05-01T00:49:38.545Z,5.30
2023-05-01T00:52:05.253Z,6.25
2023-05-01T00:54:31.998Z,5.97
2023-05-01T00:56:58.700Z,5.80
2023-05-01T00:59:25.489Z,5.97
2023-05-01T01:01:54.402Z,6.43
2023-05-01T01:04:23.170Z,6.22
2023-05-01T01:06:58.674Z,5.85
2023-05-01T01:09:51.936Z,7.72
2023-05-01T01:12:36.387Z,6.00
2023-05-01T01:15:34.974Z,4.97
2023-05-01T01:18:19.305Z,5.82
2023-05-01T01:20:53.662Z,7.55
2023-05-01T01:23:41.872Z,6.47
2023-05-01T01:26:22.508Z,4.68
2023-05-01T01:29:02.783Z,5.17
2023-05-01T01:31:51.006Z,6.72
2023-05-01T01:34:23.768Z,5.95
2023-05-01T01:37:16.838Z,5.82
2023-05-01T01:39:49.998Z,7.88
2023-05-01T01:42:24.426Z,7.10
2023-05-01T01:45:02.692Z,5.13
2023-05-01T01:47:32.958Z,5.82
2023-05-01T01:50:04.772Z,6.32
2023-05-01T01:52:32.798Z,7.88
2023-05-01T01:55:07.710Z,6.10
2023-05-01T01:57:37.879Z,6.40
2023-05-01T02:00:08.930Z,5.82
2023-05-01T02:02:38.764Z,4.82
2023-05-01T02:05:11.546Z,4.88
2023-05-01T02:07:40.668Z,4.83
2023-05-01T02:10:09.836Z,4.53
2023-05-01T02:12:37.231Z,5.07
2023-05-01T02:15:06.731Z,5.95
2023-05-01T02:17:35.590Z,6.00
2023-05-01T02:20:05.065Z,7.07
2023-05-01T02:22:32.490Z,8.50
2023-05-01T02:25:01.032Z,6.20
2023-05-01T02:27:34.834Z,8.05
2023-05-01T02:30:01.803Z,5.80
2023-05-01T02:32:28.840Z,8.13
2023-05-01T02:34:55.852Z,7.57
2023-05-01T02:37:24.216Z,5.15
2023-05-01T02:39:51.219Z,6.05
2023-05-01T02:42:20.566Z,8.40
2023-05-01T02:44:51.991Z,7.63
2023-05-01T02:47:22.750Z,6.22
2023-05-01T02:49:51.552Z,8.50
2023-05-01T02:52:19.729Z,8.80
2023-05-01T02:54:47.137Z,6.88
2023-05-01T02:57:14.102Z,6.90
2023-05-01T02:59:41.081Z,5.85
2023-05-01T03:02:07.838Z,6.05
2023-05-01T03:04:35.002Z,5.88
2023-05-01T03:07:01.789Z,6.97
2023-05-01T03:09:28.541Z,6.87
2023-05-01T03:11:55.540Z,7.95
2023-05-01T03:14:22.506Z,7.60
2023-05-01T03:16:49.529Z,6.90
2023-05-01T03:19:16.298Z,6.88
2023-05-01T03:21:43.017Z,7.47
2023-05-01T03:24:10.210Z,8.82
2023-05-01T03:26:36.936Z,9.13
2023-05-01T03:29:03.755Z,6.85
2023-05-01T03:31:30.562Z,7.10
2023-05-01T03:33:57.335Z,8.47
2023-05-01T03:36:25.045Z,7.95
2023-05-01T03:38:51.764Z,7.03
2023-05-01T03:41:18.518Z,8.55
2023-05-01T03:43:45.461Z,6.78
2023-05-01T03:46:12.257Z,9.63
2023-05-01T03:48:39.041Z,5.35
2023-05-01T03:51:05.971Z,7.13
2023-05-01T03:53:33.040Z,7.22
2023-05-01T03:56:00.809Z,7.50
2023-05-01T03:58:27.603Z,5.83
2023-05-01T04:00:56.983Z,6.55
2023-05-01T04:03:23.776Z,7.28
2023-05-01T04:05:50.581Z,7.28
2023-05-01T04:08:17.292Z,6.68
2023-05-01T04:10:44.043Z,7.97
2023-05-01T04:13:12.075Z,8.27
2023-05-01T04:15:39.014Z,7.03
2023-05-01T04:18:05.827Z,6.05
2023-05-01T04:20:33.053Z,9.30
2023-05-01T04:22:59.815Z,6.03
2023-05-01T04:25:27.988Z,7.97
2023-05-01T04:27:54.849Z,7.93
2023-05-01T04:30:21.735Z,6.97
2023-05-01T04:32:48.474Z,8.35
2023-05-01T04:35:15.218Z,8.80
2023-05-01T04:37:41.976Z,8.30
2023-05-01T04:40:11.273Z,7.70
2023-05-01T04:42:38.652Z,6.93
2023-05-01T04:45:06.309Z,7.95
2023-05-01T04:47:33.098Z,9.40
2023-05-01T04:49:59.945Z,7.38
2023-05-01T04:52:26.862Z,6.70
2023-05-01T04:54:53.646Z,7.20
2023-05-01T04:57:20.309Z,7.07
2023-05-01T04:59:47.804Z,7.97
2023-05-01T05:02:14.632Z,8.20
2023-05-01T05:04:41.391Z,7.78
2023-05-01T05:07:09.373Z,6.18
2023-05-01T05:09:36.358Z,7.38
2023-05-01T05:12:04.625Z,6.60
2023-05-01T05:14:31.614Z,6.30
2023-05-01T05:16:58.479Z,8.02
2023-05-01T05:19:25.755Z,8.55
2023-05-01T05:21:52.473Z,8.25
2023-05-01T05:24:19.207Z,8.00
2023-05-01T05:26:45.884Z,7.90
2023-05-01T05:29:12.688Z,6.78
2023-05-01T05:31:39.519Z,12.30
2023-05-01T05:34:06.244Z,5.80
2023-05-01T05:36:33.122Z,9.33
2023-05-01T05:39:00.130Z,8.55
2023-05-01T05:41:27.162Z,7.50
2023-05-01T05:43:54.371Z,8.32
2023-05-01T05:46:21.275Z,9.32
2023-05-01T05:48:48.077Z,6.00
2023-05-01T05:51:15.095Z,9.13
2023-05-01T05:53:41.842Z,14.73
2023-05-01T05:56:08.507Z,10.05
2023-05-01T05:58:35.262Z,9.85
2023-05-01T06:01:01.958Z,6.93
2023-05-01T06:03:28.921Z,11.70
2023-05-01T06:05:56.118Z,10.18
2023-05-01T06:08:23.298Z,7.63
2023-05-01T06:10:50.180Z,7.05
2023-05-01T06:13:16.959Z,9.50
2023-05-01T06:15:45.359Z,10.30
2023-05-01T06:18:12.259Z,6.20
2023-05-01T06:20:39.038Z,7.80
2023-05-01T06:23:05.752Z,6.78
2023-05-01T06:25:32.523Z,10.83
2023-05-01T06:27:59.590Z,9.70
2023-05-01T06:30:26.309Z,9.73
2023-05-01T06:32:53.139Z,7.82
2023-05-01T06:35:21.014Z,10.80
2023-05-01T06:37:47.843Z,12.13
2023-05-01T06:40:14.640Z,8.30
2023-05-01T06:42:42.141Z,15.18
2023-05-01T06:45:09.034Z,8.30
2023-05-01T06:47:36.176Z,9.27
2023-05-01T06:50:05.785Z,6.33
2023-05-01T06:52:33.178Z,8.95
2023-05-01T06:54:59.873Z,5.28
2023-05-01T06:57:26.605Z,9.88
2023-05-01T06:59:54.190Z,7.43
2023-05-01T07:02:21.348Z,8.90
2023-05-01T07:04:48.235Z,7.57
2023-05-01T07:07:15.038Z,8.55
2023-05-01T07:09:41.753Z,8.55
2023-05-01T07:12:08.748Z,8.00
2023-05-01T07:14:35.975Z,8.97
2023-05-01T07:17:03.593Z,7.65
2023-05-01T07:19:30.584Z,8.02
2023-05-01T07:21:57.601Z,8.50
2023-05-01T07:24:24.350Z,9.18
2023-05-01T07:26:51.793Z,12.13
2023-05-01T07:29:18.668Z,9.75
2023-05-01T07:31:46.818Z,9.10
2023-05-01T07:34:13.906Z,7.43
2023-05-01T07:36:41.587Z,6.55
2023-05-01T07:39:08.387Z,6.87
2023-05-01T07:41:35.133Z,9.90
2023-05-01T07:44:02.140Z,9.07
2023-05-01T07:46:29.629Z,7.40
2023-05-01T07:48:56.429Z,8.13
2023-05-01T07:51:23.958Z,7.77
2023-05-01T07:53:50.782Z,5.78
2023-05-01T07:56:17.628Z,13.43
2023-05-01T07:58:44.376Z,9.82
2023-05-01T08:01:11.154Z,13.80
2023-05-01T08:03:38.143Z,8.50
2023-05-01T08:06:06.145Z,6.35
2023-05-01T08:08:32.933Z,7.95
2023-05-01T08:10:59.618Z,11.40
2023-05-01T08:13:26.350Z,7.85
2023-05-01T08:15:53.289Z,8.57
2023-05-01T08:18:21.098Z,8.07
2023-05-01T08:20:48.910Z,6.65
2023-05-01T08:23:16.867Z,8.35
2023-05-01T08:25:46.724Z,7.68
2023-05-01T08:28:16.809Z,7.17
2023-05-01T08:30:44.506Z,8.32
2023-05-01T08:33:11.283Z,8.60
2023-05-01T08:35:38.117Z,8.45
2023-05-01T08:38:04.828Z,12.70
2023-05-01T08:40:36.132Z,7.57
2023-05-01T08:43:03.304Z,7.97
2023-05-01T08:45:36.336Z,9.70
2023-05-01T08:48:10.399Z,8.05
2023-05-01T08:50:39.639Z,10.85
2023-05-01T08:53:06.906Z,10.33
2023-05-01T08:55:35.344Z,9.55
2023-05-01T08:58:03.988Z,8.30
2023-05-01T09:00:34.244Z,8.20
2023-05-01T09:03:04.949Z,9.15
2023-05-01T09:05:33.180Z,8.77
2023-05-01T09:08:01.167Z,8.10
2023-05-01T09:10:28.287Z,9.73
2023-05-01T09:12:59.734Z,8.93
2023-05-01T09:15:27.638Z,7.80
2023-05-01T09:17:55.275Z,8.90
2023-05-01T09:20:23.370Z,10.07
2023-05-01T09:22:50.858Z,8.80
2023-05-01T09:25:18.460Z,9.25
2023-05-01T09:27:49.721Z,9.38
2023-05-01T09:30:37.071Z,8.87
2023-05-01T09:33:08.357Z,8.68
2023-05-01T09:35:56.184Z,10.85
2023-05-01T09:38:29.128Z,8.18
2023-05-01T09:41:04.303Z,8.68
2023-05-01T09:43:31.746Z,11.70
2023-05-01T09:46:10.621Z,9.23
2023-05-01T09:48:38.130Z,10.05
2023-05-01T09:51:20.431Z,10.48
2023-05-01T09:53:47.087Z,8.52
2023-05-01T09:56:14.710Z,7.57
2023-05-01T09:58:41.533Z,9.35
2023-05-01T10:01:08.891Z,9.23
2023-05-01T10:03:36.492Z,12.50
2023-05-01T10:06:04.338Z,9.75
2023-05-01T10:08:58.089Z,8.77
2023-05-01T10:11:24.938Z,10.23
2023-05-01T10:14:09.636Z,10.43
2023-05-01T10:16:38.319Z,9.48
2023-05-01T10:19:05.679Z,9.32
2023-05-01T10:21:33.583Z,7.27
2023-05-01T10:24:06.500Z,9.80
2023-05-01T10:26:34.922Z,8.20
2023-05-01T10:29:03.086Z,9.63
2023-05-01T10:31:32.656Z,10.98
2023-05-01T10:34:02.945Z,9.37
2023-05-01T10:36:45.997Z,10.25
2023-05-01T10:39:34.908Z,4.85
2023-05-01T10:42:06.596Z,8.02
2023-05-01T10:44:35.035Z,7.25
2023-05-01T10:47:25.220Z,7.57
2023-05-01T10:50:15.968Z,7.85
2023-05-01T10:53:21.676Z,8.90
2023-05-01T10:55:49.429Z,11.15
2023-05-01T10:58:38.522Z,10.93
2023-05-01T11:01:33.064Z,11.47
2023-05-01T11:04:05.879Z,10.30
2023-05-01T11:06:33.012Z,11.32
2023-05-01T11:09:00.866Z,13.18
2023-05-01T11:11:27.530Z,14.02
2023-05-01T11:14:01.681Z,13.27
2023-05-01T11:16:40.841Z,13.25
2023-05-01T11:19:23.230Z,9.30
2023-05-01T11:21:54.334Z,6.93
2023-05-01T11:24:32.969Z,10.68
2023-05-01T11:27:02.569Z,12.40
2023-05-01T11:29:33.317Z,9.75
2023-05-01T11:32:01.124Z,12.05
2023-05-01T11:34:34.776Z,12.02
2023-05-01T11:37:01.624Z,16.17
2023-05-01T11:39:28.879Z,12.27
2023-05-01T11:42:11.026Z,10.73
2023-05-01T11:44:37.727Z,13.00
2023-05-01T11:47:07.332Z,13.80
2023-05-01T11:49:34.485Z,13.30
2023-05-01T11:52:01.312Z,15.27
2023-05-01T11:54:28.450Z,16.83
2023-05-01T11:57:01.867Z,14.95
2023-05-01T11:59:29.037Z,15.48
2023-05-01T12:01:55.931Z,16.00
2023-05-01T12:04:30.699Z,18.30
2023-05-01T12:06:58.590Z,21.20
2023-05-01T12:09:29.307Z,15.93
2023-05-01T12:11:59.694Z,13.70
2023-05-01T12:14:26.807Z,10.30
2023-05-01T12:16:53.980Z,10.77
2023-05-01T12:19:23.857Z,11.52
2023-05-01T12:22:08.486Z,10.45
2023-05-01T12:24:35.293Z,12.55
2023-05-01T12:27:03.607Z,28.38
2023-05-01T12:29:41.469Z,12.03
2023-05-01T12:32:08.930Z,30.67
2023-05-01T12:34:36.840Z,16.83
2023-05-01T12:37:05.330Z,7.65
2023-05-01T12:39:40.321Z,7.50
2023-05-01T12:42:14.879Z,9.73
2023-05-01T12:44:42.827Z,8.68
2023-05-01T12:47:09.768Z,7.70
2023-05-01T12:49:37.807Z,7.25
2023-05-01T12:52:09.134Z,8.27
2023-05-01T12:54:37.860Z,8.73
2023-05-01T12:57:14.592Z,47.63
2023-05-01T12:59:45.193Z,19.23
2023-05-01T13:02:29.781Z,7.95
2023-05-01T13:05:07.373Z,8.43
2023-05-01T13:07:35.904Z,6.83
2023-05-01T13:10:04.050Z,8.77
2023-05-01T13:12:31.583Z,8.05
2023-05-01T13:14:59.431Z,5.72
2023-05-01T13:17:31.314Z,7.38
2023-05-01T13:20:00.104Z,5.83
2023-05-01T13:22:34.108Z,7.25
2023-05-01T13:25:03.182Z,7.20
2023-05-01T13:27:53.605Z,5.63
2023-05-01T13:30:30.780Z,7.20
2023-05-01T13:32:57.574Z,5.67
2023-05-01T13:35:25.365Z,7.70
2023-05-01T13:37:53.000Z,7.43
2023-05-01T13:40:20.677Z,8.63
2023-05-01T13:42:52.803Z,7.10
2023-05-01T13:45:21.275Z,8.17
2023-05-01T13:47:50.755Z,9.23
2023-05-01T13:50:18.097Z,7.82
2023-05-01T13:52:45.959Z,7.47
2023-05-01T13:55:21.768Z,6.80
2023-05-01T13:57:49.583Z,6.37
2023-05-01T14:00:18.639Z,5.53
2023-05-01T14:02:48.710Z,5.60
2023-05-01T14:05:16.796Z,6.55
2023-05-01T14:08:02.258Z,7.40
2023-05-01T14:10:35.945Z,7.10
2023-05-01T14:13:05.308Z,5.75
2023-05-01T14:15:33.960Z,6.88
2023-05-01T14:18:15.623Z,8.35
2023-05-01T14:20:45.791Z,6.65
2023-05-01T14:23:16.712Z,8.63
2023-05-01T14:25:45.768Z,8.75
2023-05-01T14:28:12.586Z,9.88
2023-05-01T14:30:40.500Z,7.88
2023-05-01T14:33:09.995Z,6.85
2023-05-01T14:35:43.142Z,10.17
2023-05-01T14:38:11.671Z,9.20
2023-05-01T14:40:41.230Z,8.65
2023-05-01T14:43:10.413Z,9.43
2023-05-01T14:45:40.456Z,7.68
2023-05-01T14:48:07.482Z,9.03
2023-05-01T14:50:34.223Z,8.60
2023-05-01T14:53:01.371Z,8.65
2023-05-01T14:55:34.752Z,10.70
2023-05-01T14:58:02.013Z,8.35
2023-05-01T15:00:28.771Z,8.57
2023-05-01T15:02:55.705Z,9.30
2023-05-01T15:05:23.844Z,9.65
2023-05-01T15:07:51.336Z,7.90
2023-05-01T15:10:18.053Z,10.35
2023-05-01T15:12:44.901Z,10.10
2023-05-01T15:15:11.869Z,10.57
2023-05-01T15:17:38.742Z,9.82
2023-05-01T15:20:06.486Z,10.63
2023-05-01T15:22:33.316Z,10.45
2023-05-01T15:25:00.370Z,8.60
2023-05-01T15:27:27.571Z,8.68
2023-05-01T15:29:54.427Z,8.23
2023-05-01T15:32:21.308Z,8.52
2023-05-01T15:34:50.007Z,9.75
2023-05-01T15:37:17.079Z,8.63
2023-05-01T15:39:43.938Z,10.55
2023-05-01T15:42:10.698Z,11.20
2023-05-01T15:44:37.730Z,8.98
2023-05-01T15:47:04.522Z,11.52
2023-05-01T15:49:31.363Z,10.37
2023-05-01T15:51:58.464Z,9.48
2023-05-01T15:54:25.240Z,11.48
2023-05-01T15:56:52.598Z,8.90
2023-05-01T15:59:19.386Z,8.75
2023-05-01T16:01:46.522Z,9.03
2023-05-01T16:04:13.604Z,9.23
2023-05-01T16:06:41.709Z,9.55
2023-05-01T16:09:08.453Z,8.73
2023-05-01T16:11:35.826Z,10.80
2023-05-01T16:14:02.785Z,9.27
2023-05-01T16:16:29.847Z,9.25
2023-05-01T16:18:58.713Z,8.98
2023-05-01T16:21:27.035Z,8.88
2023-05-01T16:23:57.385Z,9.68
2023-05-01T16:26:28.168Z,11.73
2023-05-01T16:29:05.617Z,9.52
2023-05-01T16:31:40.841Z,10.98
2023-05-01T16:34:11.209Z,9.27
2023-05-01T16:36:42.806Z,9.98
2023-05-01T16:39:19.111Z,10.27
2023-05-01T16:41:47.886Z,11.13
2023-05-01T16:44:19.235Z,10.93
2023-05-01T16:46:57.057Z,12.30
2023-05-01T16:49:29.004Z,15.07
2023-05-01T16:51:57.239Z,12.27
2023-05-01T16:54:25.402Z,12.23
2023-05-01T16:56:52.120Z,13.93
2023-05-01T16:59:18.966Z,15.50
2023-05-01T17:01:46.073Z,12.90
2023-05-01T17:04:14.203Z,13.20
2023-05-01T17:06:41.005Z,14.85
2023-05-01T17:09:08.590Z,16.33
2023-05-01T17:11:35.756Z,15.98
2023-05-01T17:14:03.673Z,17.42
2023-05-01T17:16:30.607Z,17.70
2023-05-01T17:18:57.412Z,16.20
2023-05-01T17:21:25.160Z,19.42
2023-05-01T17:24:02.464Z,18.40
2023-05-01T17:26:29.201Z,21.35
2023-05-01T17:28:56.068Z,17.40
2023-05-01T17:31:23.028Z,17.90
2023-05-01T17:33:50.007Z,18.85
2023-05-01T17:36:16.730Z,17.48
2023-05-01T17:38:43.487Z,20.58
2023-05-01T17:41:10.593Z,18.83
2023-05-01T17:43:37.334Z,18.27
2023-05-01T17:46:04.997Z,19.13
2023-05-01T17:48:31.986Z,19.98
2023-05-01T17:50:58.794Z,24.88
2023-05-01T17:56:28.665Z,21.15
2023-05-01T17:58:55.426Z,20.90
2023-05-01T18:01:22.350Z,22.55
2023-05-01T18:03:49.411Z,22.45
2023-05-01T18:06:16.949Z,22.80
2023-05-01T18:08:43.783Z,25.73
2023-05-01T18:11:11.503Z,24.67
2023-05-01T18:13:39.977Z,27.13
2023-05-01T18:16:06.825Z,28.75
2023-05-01T18:18:33.544Z,28.80
2023-05-01T18:21:00.216Z,31.42
2023-05-01T18:23:27.144Z,29.25
2023-05-01T18:25:56.320Z,29.67
2023-05-01T18:28:23.121Z,32.55
2023-05-01T18:30:53.027Z,30.97
2023-05-01T18:33:21.409Z,35.35
2023-05-01T18:35:48.095Z,33.40
2023-05-01T18:38:14.774Z,35.28
2023-05-01T18:40:41.484Z,38.25
2023-05-01T18:43:08.314Z,38.83
2023-05-01T18:45:35.072Z,42.55
2023-05-01T18:48:01.839Z,44.00
2023-05-01T18:50:28.916Z,39.60
2023-05-01T18:52:55.805Z,40.30
2023-05-01T18:55:22.566Z,43.60
2023-05-01T18:57:49.567Z,43.05
2023-05-01T19:00:17.663Z,47.83
2023-05-01T19:02:52.274Z,44.72
2023-05-01T19:11:00.572Z,37.72
2023-05-01T19:13:29.990Z,44.65
2023-05-01T19:16:01.813Z,41.53
2023-05-01T19:18:28.859Z,40.88
2023-05-01T19:23:43.303Z,39.35
2023-05-01T19:26:12.996Z,41.22
2023-05-01T19:28:43.947Z,41.50
2023-05-01T19:31:22.401Z,39.58
2023-05-01T19:33:58.182Z,40.57
2023-05-01T19:36:33.073Z,43.60
2023-05-01T19:39:29.673Z,37.53
2023-05-01T19:41:56.789Z,42.15
2023-05-01T19:44:23.889Z,44.20
2023-05-01T19:46:50.722Z,27.43
2023-05-01T19:49:17.574Z,41.95
2023-05-01T19:51:45.672Z,41.22
2023-05-01T19:54:12.490Z,38.40
2023-05-01T19:56:39.516Z,42.30
2023-05-01T19:59:06.458Z,48.50
2023-05-01T20:01:33.529Z,40.08
2023-05-01T20:04:00.579Z,42.72
2023-05-01T20:06:27.803Z,39.90
2023-05-01T20:08:54.622Z,27.20
2023-05-01T20:11:21.380Z,23.97
2023-05-01T20:13:48.087Z,29.35
2023-05-01T20:16:14.869Z,20.33
2023-05-01T20:18:41.766Z,17.70
2023-05-01T20:21:08.639Z,19.75
2023-05-01T20:23:35.507Z,29.13
2023-05-01T20:26:02.325Z,29.52
2023-05-01T20:28:29.272Z,18.77
2023-05-01T20:30:56.279Z,25.27
2023-05-01T20:33:23.316Z,31.88
2023-05-01T20:35:51.195Z,36.63
2023-05-01T20:38:18.090Z,33.40
2023-05-01T20:40:44.980Z,30.02
2023-05-01T20:43:12.073Z,32.15
2023-05-01T20:45:39.685Z,30.70
2023-05-01T20:48:06.677Z,30.50
2023-05-01T20:50:35.924Z,17.45
2023-05-01T20:53:02.642Z,28.33
2023-05-01T20:55:29.934Z,22.58
2023-05-01T20:57:56.781Z,23.92
2023-05-01T21:00:23.497Z,22.07
2023-05-01T21:02:51.808Z,24.20
2023-05-01T21:05:18.706Z,23.45
2023-05-01T21:07:45.597Z,16.08
2023-05-01T21:10:14.268Z,20.88
2023-05-01T21:12:41.166Z,23.63
2023-05-01T21:15:08.787Z,21.80
2023-05-01T21:17:37.193Z,24.80
2023-05-01T21:20:17.035Z,22.33
2023-05-01T21:22:45.692Z,20.95
2023-05-01T21:25:15.927Z,22.77
2023-05-01T21:27:42.733Z,26.45
2023-05-01T21:30:15.215Z,20.50
2023-05-01T21:32:42.189Z,20.55
2023-05-01T21:35:10.788Z,23.08
2023-05-01T21:37:38.422Z,18.13
2023-05-01T21:40:07.331Z,24.35
2023-05-01T21:42:39.283Z,26.65
2023-05-01T21:45:11.722Z,28.30
2023-05-01T21:47:49.342Z,26.48
2023-05-01T21:50:17.952Z,28.80
2023-05-01T21:52:46.387Z,26.23
2023-05-01T21:55:21.953Z,28.67
2023-05-01T21:57:53.109Z,29.23
2023-05-01T22:00:22.841Z,33.00
2023-05-01T22:02:51.306Z,32.70
2023-05-01T22:05:22.599Z,29.90
2023-05-01T22:07:51.977Z,31.77
2023-05-01T22:10:19.846Z,35.88
2023-05-01T22:12:48.685Z,32.20
2023-05-01T22:15:16.101Z,29.73
2023-05-01T22:17:43.133Z,31.40
2023-05-01T22:20:10.632Z,31.50
2023-05-01T22:22:39.499Z,27.98
2023-05-01T22:25:07.288Z,28.83
2023-05-01T22:27:34.741Z,32.70
2023-05-01T22:30:02.481Z,30.27
2023-05-01T22:32:29.660Z,24.30
2023-05-01T22:34:56.653Z,30.15
2023-05-01T22:37:25.578Z,30.55
2023-05-01T22:39:53.320Z,28.53
2023-05-01T22:42:20.386Z,25.00
2023-05-01T22:44:47.285Z,27.20
2023-05-01T22:47:14.036Z,31.17
2023-05-01T22:49:41.838Z,28.20
2023-05-01T22:52:08.641Z,17.47
2023-05-01T22:54:35.466Z,13.18
2023-05-01T22:57:02.577Z,19.52
2023-05-01T22:59:29.518Z,20.67
2023-05-01T23:01:56.634Z,21.60
2023-05-01T23:04:23.517Z,21.53
2023-05-01T23:06:50.372Z,14.35
2023-05-01T23:09:17.719Z,18.13
2023-05-01T23:11:47.676Z,19.08
2023-05-01T23:14:17.954Z,20.77
2023-05-01T23:16:44.709Z,12.03
2023-05-01T23:19:22.797Z,18.23
2023-05-01T23:21:51.597Z,16.35
2023-05-01T23:24:21.226Z,12.75
2023-05-01T23:26:48.138Z,14.95
2023-05-01T23:29:18.263Z,8.47
2023-05-01T23:31:47.031Z,14.48
2023-05-01T23:34:17.081Z,14.20
2023-05-01T23:36:46.186Z,9.23
2023-05-01T23:39:13.630Z,17.08
2023-05-01T23:41:40.780Z,16.23
2023-05-01T23:44:08.406Z,17.90
2023-05-01T23:46:35.655Z,18.90
2023-05-01T23:49:02.599Z,9.68
2023-05-01T23:51:29.820Z,18.70
2023-05-01T23:53:56.854Z,17.03
2023-05-01T23:56:23.684Z,16.80
2023-05-01T23:58:50.417Z,24.63
